Terminal Aerodrome Forecast
Issued by NWS Cleveland, OH

Home | Current Version | Previous Version | Graphics & Text | Print | Product List | Glossary On
Versions: 1 2 3 4 5 6 7 8 9 10 11 12 13 14 15 16 17 18 19 20 21 22 23 24 25
000
FTUS41 KCLE 191600 AAA
TAFMFD
TAF AMD
KMFD 191607Z 1916/2012 27005KT P6SM SCT028 BKN040
      TEMPO 1916/1918 BKN028
     FM192100 23008KT P6SM BKN035
      TEMPO 1921/1924 3SM TSRA OVC025CB
     FM200100 15006KT 6SM -TSRA SCT035CB OVC050
     FM200700 16005KT 4SM BR OVC025=

USA.gov is the U.S. government's official web portal to all federal, state and local government web resources and services.